This is the latest recevied weather packets stored in our database for station/object VK2BLR. If no packets are shown the sender has not sent any weather packets the latest 10 day(s).
| Time | Temp. | Humidity | Pressure | Rain* | Wind** | Luminosity | Snow |
|---|---|---|---|---|---|---|---|
| 1788132992 | 22.78° C | 40% | 1028 hPa | 0 mm | - | - | - |
| 1788132091 | 22.22° C | 44% | 1028 hPa | 0 mm | - | - | - |
| 1788131190 | 21.67° C | 42% | 1028.1 hPa | 0 mm | - | - | - |
| 1788130292 | 21.11° C | 46% | 1028 hPa | 0 mm | - | - | - |
| 1788129390 | 20° C | 51% | 1027.8 hPa | 0 mm | - | - | - |
| 1788128491 | 18.89° C | 52% | 1028 hPa | 0 mm | - | - | - |
| 1788127592 | 17.22° C | 58% | 1027.6 hPa | 0 mm | - | - | - |
| 1788126691 | 15.56° C | 64% | 1027.4 hPa | 0 mm | - | - | - |
| 1788125791 | 13.33° C | 71% | 1027.3 hPa | 0 mm | - | - | - |
| 1788124891 | 10.56° C | 82% | 1027.4 hPa | 0 mm | - | - | - |
| 1788123992 | 7.78° C | 83% | 1027.3 hPa | 0 mm | - | - | - |
| 1788123091 | 6.11° C | 86% | 1027.1 hPa | 0 mm | - | - | - |
| 1788122191 | 6.11° C | 86% | 1026.9 hPa | 0 mm | - | - | - |
| 1788121291 | 6.11° C | 85% | 1026.8 hPa | 0 mm | - | - | - |
| 1788120392 | 6.11° C | 85% | 1026.6 hPa | 0 mm | - | - | - |
| 1788119491 | 6.11° C | 85% | 1026.5 hPa | 0 mm | - | - | - |
| 1788118591 | 6.11° C | 85% | 1026.4 hPa | 0 mm | - | - | - |
| 1788117691 | 6.11° C | 85% | 1026.4 hPa | 0 mm | - | - | - |
| 1788116792 | 6.11° C | 84% | 1026.3 hPa | 0 mm | - | - | - |
| 1788115890 | 6.67° C | 84% | 1026.3 hPa | 0 mm | - | - | - |
| 1788114991 | 6.67° C | 84% | 1026.2 hPa | 0 mm | - | - | - |
| 1788114090 | 6.67° C | 84% | 1026.3 hPa | 0 mm | - | - | - |
| 1788113190 | 6.67° C | 83% | 1026.4 hPa | 0 mm | - | - | - |
| 1788112292 | 6.67° C | 83% | 1026.4 hPa | 0 mm | - | - | - |
| 1788111392 | 6.67° C | 83% | 1026.6 hPa | 0 mm | - | - | - |
* Rain latest hour (hover to see other rain measurements)
** Current wind speed in m/s (hover to see current wind gust speed)